Terminal Aerodrome Forecast
Issued by NWS

Home | Current Version | Previous Version | Text Only | Print | Product List | Glossary On
Versions: 1 2 3 4 5 6 7 8 9 10 11 12 13 14 15 16 17 18 19
000
FTUS45 KPSR 291120
TAFSDL
TAF
KSDL 291120Z 2912/3012 22006KT P6SM BKN080
     FM292100 26012G18KT P6SM SCT080
     FM300400 25006KT P6SM FEW120
     FM300700 VRB04KT P6SM FEW120=

USA.gov is the U.S. government's official web portal to all federal, state and local government web resources and services.